Time;durP1;ratioP1;P1;durP2;ratioP2;P2;SDS_P1;SDS_P2;PMS_P1;PMS_P2;Temp;Humidity;BMP_temperature;BMP_pressure;BME280_temperature;BME280_humidity;BME280_pressure;Samples;Min_cycle;Max_cycle;Signal;HPM_P1;HPM_P2
2023/11/23 00:00:14;;;;;;;71.25;39.60;;;8.40;99.90;;;;;;7376292;19;20451;-60
2023/11/23 00:02:41;;;;;;;68.63;39.20;;;8.40;99.90;;;;;;7373284;19;20023;-60
2023/11/23 00:05:08;;;;;;;61.97;39.35;;;8.50;99.90;;;;;;7376716;19;20026;-61
2023/11/23 00:07:35;;;;;;;66.78;37.67;;;8.50;99.90;;;;;;7375476;19;20412;-61
2023/11/23 00:10:03;;;;;;;66.88;39.53;;;8.50;99.90;;;;;;7376560;19;20494;-61
2023/11/23 00:12:30;;;;;;;71.47;41.00;;;8.50;99.90;;;;;;7375907;19;20064;-61
2023/11/23 00:14:59;;;;;;;70.18;40.50;;;8.50;99.90;;;;;;7375222;19;20029;-61
2023/11/23 00:17:27;;;;;;;66.47;40.50;;;8.60;99.90;;;;;;7376633;19;20015;-61
2023/11/23 00:19:54;;;;;;;65.18;39.55;;;8.60;99.90;;;;;;7374626;19;20025;-60
2023/11/23 00:22:23;;;;;;;66.35;39.90;;;8.60;99.90;;;;;;7369717;19;20023;-60
2023/11/23 00:25:11;;;;;;;75.20;39.65;;;8.60;99.90;;;;;;7372760;19;20037;-60
2023/11/23 00:27:41;;;;;;;66.50;37.33;;;8.70;99.90;;;;;;7375311;19;20059;-61
2023/11/23 00:30:08;;;;;;;66.05;38.42;;;8.70;99.90;;;;;;7374078;19;20016;-60
2023/11/23 00:32:36;;;;;;;65.32;36.67;;;8.70;99.90;;;;;;7371322;19;20787;-60
2023/11/23 00:35:03;;;;;;;59.83;36.20;;;8.70;99.90;;;;;;7376146;19;20022;-60
2023/11/23 00:37:31;;;;;;;61.25;36.83;;;8.80;99.90;;;;;;7372676;19;20107;-60
2023/11/23 00:39:58;;;;;;;62.30;36.95;;;8.80;99.90;;;;;;7372849;19;20022;-61
2023/11/23 00:42:24;;;;;;;57.63;36.67;;;8.80;99.90;;;;;;7372680;19;20028;-61
2023/11/23 00:44:51;;;;;;;61.80;37.10;;;8.90;99.90;;;;;;7374387;19;20030;-61
2023/11/23 00:47:19;;;;;;;63.00;36.10;;;8.90;99.90;;;;;;7373904;19;20021;-60
2023/11/23 00:49:45;;;;;;;61.60;38.78;;;9.00;99.90;;;;;;7371692;19;20118;-61
2023/11/23 00:52:12;;;;;;;58.33;34.35;;;9.00;99.90;;;;;;7371021;19;20022;-61
2023/11/23 00:54:39;;;;;;;58.83;36.22;;;9.00;99.90;;;;;;7369866;19;20378;-63
2023/11/23 00:57:06;;;;;;;58.83;35.00;;;9.00;99.90;;;;;;7373538;19;20078;-63
2023/11/23 00:59:34;;;;;;;65.90;36.15;;;9.00;99.90;;;;;;7372257;19;20031;-64
2023/11/23 01:02:01;;;;;;;60.75;37.53;;;9.00;99.90;;;;;;7372611;19;20026;-63
2023/11/23 01:04:28;;;;;;;58.28;33.90;;;9.10;99.90;;;;;;7371930;19;20029;-63
2023/11/23 01:07:14;;;;;;;58.97;35.58;;;9.10;99.90;;;;;;7366399;19;20019;-64
2023/11/23 01:09:40;;;;;;;60.13;33.28;;;9.10;99.90;;;;;;7373302;19;20651;-64
2023/11/23 01:12:10;;;;;;;58.92;35.63;;;9.10;99.90;;;;;;7372616;19;20023;-64
2023/11/23 01:14:36;;;;;;;59.80;36.33;;;9.10;99.90;;;;;;7370350;19;20073;-63
2023/11/23 01:17:03;;;;;;;61.08;37.67;;;9.10;99.90;;;;;;7374667;19;20369;-63
2023/11/23 01:19:29;;;;;;;62.40;36.08;;;9.10;99.90;;;;;;7370864;19;20022;-64
2023/11/23 01:21:56;;;;;;;62.22;36.38;;;9.10;99.90;;;;;;7366029;19;20019;-63
2023/11/23 01:24:22;;;;;;;59.55;38.15;;;9.10;99.90;;;;;;7371518;19;20018;-63
2023/11/23 01:26:48;;;;;;;64.20;36.72;;;9.10;99.90;;;;;;7367520;19;20019;-63
2023/11/23 01:29:14;;;;;;;63.10;38.28;;;9.20;99.90;;;;;;7374355;19;20026;-63
2023/11/23 01:31:41;;;;;;;58.28;35.72;;;9.20;99.90;;;;;;7368014;19;20477;-64
2023/11/23 01:34:08;;;;;;;63.40;38.75;;;9.20;99.90;;;;;;7372491;19;20014;-64
2023/11/23 01:36:35;;;;;;;67.18;36.25;;;9.20;99.90;;;;;;7367101;19;20022;-63
2023/11/23 01:39:01;;;;;;;62.30;36.17;;;9.20;99.90;;;;;;7370295;19;21383;-63
2023/11/23 01:41:28;;;;;;;61.60;36.75;;;9.20;99.90;;;;;;7366380;19;20571;-64
2023/11/23 01:43:54;;;;;;;62.20;35.63;;;9.20;99.90;;;;;;7371067;19;20037;-64
2023/11/23 01:46:21;;;;;;;61.13;36.47;;;9.30;99.90;;;;;;7365106;19;20112;-63
2023/11/23 01:48:50;;;;;;;62.63;36.10;;;9.30;99.90;;;;;;7368552;19;20026;-64
2023/11/23 01:51:17;;;;;;;60.83;35.35;;;9.30;99.90;;;;;;7368646;19;20910;-63
2023/11/23 01:53:43;;;;;;;60.08;35.85;;;9.30;99.90;;;;;;7370659;19;20383;-64
2023/11/23 01:56:11;;;;;;;63.00;36.72;;;9.30;99.90;;;;;;7370825;19;20590;-63
2023/11/23 01:58:38;;;;;;;59.22;35.75;;;9.30;99.90;;;;;;7371894;19;20044;-63
2023/11/23 02:01:24;;;;;;;55.33;34.72;;;9.40;99.90;;;;;;7365847;19;20022;-64
2023/11/23 02:03:51;;;;;;;56.88;35.50;;;9.40;99.90;;;;;;7369887;19;20462;-64
2023/11/23 02:06:19;;;;;;;58.53;34.47;;;9.40;99.90;;;;;;7374452;19;20022;-64
2023/11/23 02:08:47;;;;;;;53.17;33.78;;;9.40;99.90;;;;;;7376558;19;20022;-63
2023/11/23 02:11:14;;;;;;;57.75;34.22;;;9.40;99.90;;;;;;7378410;19;20014;-63
2023/11/23 02:14:00;;;;;;;57.00;34.75;;;9.40;99.90;;;;;;7375933;19;20019;-64
2023/11/23 02:16:27;;;;;;;56.75;33.50;;;9.50;99.90;;;;;;7373968;19;20039;-63
2023/11/23 02:18:54;;;;;;;51.53;31.42;;;9.50;99.90;;;;;;7374945;19;20029;-63
2023/11/23 02:21:24;;;;;;;50.92;31.98;;;9.50;99.90;;;;;;7374785;19;20856;-64
2023/11/23 02:23:50;;;;;;;48.15;30.25;;;9.60;99.90;;;;;;7377628;19;20015;-61
2023/11/23 02:26:17;;;;;;;49.47;28.73;;;9.60;99.90;;;;;;7375367;19;20015;-63
2023/11/23 02:28:43;;;;;;;43.67;29.83;;;9.70;99.90;;;;;;7373949;19;20026;-62
2023/11/23 02:31:09;;;;;;;44.53;29.10;;;9.60;99.90;;;;;;7374301;19;20029;-63
2023/11/23 02:33:36;;;;;;;44.97;28.83;;;9.70;99.90;;;;;;7370823;19;20026;-63
2023/11/23 02:36:04;;;;;;;46.90;28.90;;;9.70;99.90;;;;;;7376302;19;21738;-62
2023/11/23 02:38:31;;;;;;;45.92;26.10;;;9.70;99.90;;;;;;7374361;19;20039;-63
2023/11/23 02:41:00;;;;;;;43.60;28.23;;;9.70;99.90;;;;;;7376447;19;20083;-60
2023/11/23 02:43:26;;;;;;;41.72;27.13;;;9.70;99.90;;;;;;7377558;19;20019;-60
2023/11/23 02:45:54;;;;;;;48.03;27.10;;;9.70;99.90;;;;;;7372616;19;20087;-60
2023/11/23 02:48:20;;;;;;;47.63;26.58;;;9.70;99.90;;;;;;7375778;19;21157;-60
2023/11/23 02:50:47;;;;;;;42.22;24.67;;;9.70;99.90;;;;;;7372472;19;20461;-64
2023/11/23 02:53:28;;;;;;;40.88;25.08;;;9.80;99.90;;;;;;7377240;19;20029;-60
2023/11/23 02:55:54;;;;;;;51.55;25.40;;;9.80;99.90;;;;;;7375692;19;20023;-60
2023/11/23 02:58:21;;;;;;;34.65;23.23;;;9.80;99.90;;;;;;7376753;19;20499;-63
2023/11/23 03:00:53;;;;;;;41.20;23.35;;;9.80;99.90;;;;;;7375141;19;20018;-63
2023/11/23 03:03:19;;;;;;;;;;;9.80;99.90;;;;;;7374408;19;20072;-63
2023/11/23 03:05:46;;;;;;;35.67;21.00;;;9.80;99.90;;;;;;7373894;19;19931;-63
2023/11/23 03:08:12;;;;;;;33.60;21.80;;;9.90;99.90;;;;;;7373702;19;20711;-63
2023/11/23 03:10:38;;;;;;;38.17;19.80;;;9.90;99.90;;;;;;7374927;19;20014;-63
2023/11/23 03:13:06;;;;;;;40.40;20.88;;;10.00;99.90;;;;;;7373724;19;20849;-63
2023/11/23 03:15:32;;;;;;;34.17;18.60;;;10.00;99.90;;;;;;7370781;19;20140;-60
2023/11/23 03:18:19;;;;;;;32.30;17.88;;;10.10;99.90;;;;;;7375319;19;20021;-60
2023/11/23 03:20:45;;;;;;;26.55;16.90;;;10.10;99.90;;;;;;7374874;19;20018;-60
2023/11/23 03:23:12;;;;;;;27.52;15.65;;;10.20;99.90;;;;;;7374774;19;20549;-60
2023/11/23 03:25:39;;;;;;;30.35;16.27;;;10.20;99.90;;;;;;7376073;19;20642;-60
2023/11/23 03:28:25;;;;;;;25.50;14.25;;;10.20;99.90;;;;;;7376600;19;20030;-60
2023/11/23 03:30:54;;;;;;;25.20;15.15;;;10.20;99.90;;;;;;7377614;19;20459;-60
2023/11/23 03:33:20;;;;;;;31.58;14.02;;;10.20;99.90;;;;;;7372700;19;20018;-61
2023/11/23 03:35:50;;;;;;;29.75;14.27;;;10.30;99.90;;;;;;7373196;19;21064;-60
2023/11/23 03:38:17;;;;;;;25.88;12.10;;;10.30;99.90;;;;;;7374250;19;20027;-60
2023/11/23 03:40:43;;;;;;;21.10;11.15;;;10.30;99.90;;;;;;7374873;19;20019;-60
2023/11/23 03:43:10;;;;;;;20.08;11.27;;;10.40;99.90;;;;;;7375126;19;20036;-60
2023/11/23 03:45:36;;;;;;;18.15;10.25;;;10.40;99.90;;;;;;7372858;19;20839;-60
2023/11/23 03:48:03;;;;;;;24.45;10.48;;;10.40;99.90;;;;;;7375726;19;20498;-60
2023/11/23 03:50:29;;;;;;;21.75;11.68;;;10.40;99.90;;;;;;7374726;19;20026;-63
2023/11/23 03:52:55;;;;;;;23.88;13.88;;;10.40;99.90;;;;;;7370614;19;20112;-62
2023/11/23 03:55:24;;;;;;;28.00;15.70;;;10.40;99.90;;;;;;7373920;19;20046;-62
2023/11/23 03:57:51;;;;;;;26.58;16.35;;;10.30;99.90;;;;;;7373793;19;20030;-62
2023/11/23 04:00:17;;;;;;;28.27;17.40;;;10.30;99.90;;;;;;7370488;19;20015;-63
2023/11/23 04:02:43;;;;;;;31.73;17.50;;;10.30;99.90;;;;;;7371108;19;20055;-63
2023/11/23 04:05:10;;;;;;;27.55;18.60;;;10.30;99.90;;;;;;7373226;19;20430;-60
2023/11/23 04:07:36;;;;;;;30.98;16.90;;;10.20;99.90;;;;;;7371746;19;20022;-60
2023/11/23 04:10:03;;;;;;;30.65;17.60;;;10.20;99.90;;;;;;7370837;19;20371;-63
2023/11/23 04:12:50;;;;;;;28.88;15.95;;;10.20;99.90;;;;;;7371738;19;20018;-62
2023/11/23 04:15:17;;;;;;;33.00;15.98;;;10.20;99.90;;;;;;7369462;19;20548;-63
2023/11/23 04:17:44;;;;;;;24.00;14.38;;;10.20;99.90;;;;;;7369369;19;20022;-63
2023/11/23 04:20:10;;;;;;;24.02;13.57;;;10.20;99.90;;;;;;7368749;19;20022;-63
2023/11/23 04:22:56;;;;;;;20.35;12.75;;;10.20;99.90;;;;;;7369401;19;20018;-63
2023/11/23 04:25:22;;;;;;;26.27;11.77;;;10.20;99.90;;;;;;7371613;19;20022;-63
2023/11/23 04:27:49;;;;;;;26.10;11.07;;;10.20;99.90;;;;;;7368735;19;20039;-62
2023/11/23 04:30:15;;;;;;;20.38;10.18;;;10.30;99.90;;;;;;7371239;19;20046;-64
2023/11/23 04:32:44;;;;;;;18.48;7.93;;;10.30;99.90;;;;;;7370527;19;20811;-62
2023/11/23 04:35:11;;;;;;;17.50;8.32;;;10.30;99.90;;;;;;7369384;19;20014;-63
2023/11/23 04:37:38;;;;;;;23.38;8.23;;;10.40;99.90;;;;;;7371977;19;20022;-63
2023/11/23 04:40:06;;;;;;;15.75;7.60;;;10.40;99.90;;;;;;7370454;19;20653;-63
2023/11/23 04:42:35;;;;;;;16.55;6.32;;;10.40;99.90;;;;;;7372471;19;20096;-63
2023/11/23 04:45:02;;;;;;;17.10;6.72;;;10.40;99.90;;;;;;7372257;19;20018;-63
2023/11/23 04:47:29;;;;;;;18.33;5.82;;;10.40;99.90;;;;;;7371349;19;20017;-63
2023/11/23 04:49:56;;;;;;;14.70;5.35;;;10.40;99.90;;;;;;7368587;19;20027;-63
2023/11/23 04:52:22;;;;;;;21.00;5.97;;;10.40;99.90;;;;;;7369198;19;20102;-63
2023/11/23 04:54:48;;;;;;;16.52;4.95;;;10.40;99.90;;;;;;7365118;19;20494;-63
2023/11/23 04:57:14;;;;;;;14.77;4.43;;;10.50;99.90;;;;;;7372494;19;20779;-63
2023/11/23 04:59:40;;;;;;;16.98;4.78;;;10.50;99.90;;;;;;7371463;19;20018;-64
2023/11/23 05:02:07;;;;;;;12.20;4.53;;;10.50;99.90;;;;;;7370568;19;20018;-62
2023/11/23 05:04:34;;;;;;;18.35;4.57;;;10.50;99.90;;;;;;7366246;19;20049;-62
2023/11/23 05:07:00;;;;;;;11.55;4.20;;;10.60;99.90;;;;;;7370410;19;20033;-63
2023/11/23 05:09:27;;;;;;;17.92;4.55;;;10.60;99.90;;;;;;7367469;19;20022;-62
2023/11/23 05:11:53;;;;;;;13.52;4.07;;;10.60;99.90;;;;;;7368618;19;20015;-60
2023/11/23 05:14:20;;;;;;;16.30;4.45;;;10.60;99.90;;;;;;7365629;19;20779;-60
2023/11/23 05:16:46;;;;;;;14.93;3.45;;;10.60;99.90;;;;;;7368712;19;20025;-60
2023/11/23 05:19:12;;;;;;;20.13;4.43;;;10.70;99.90;;;;;;7366761;19;20014;-60
2023/11/23 05:21:39;;;;;;;15.40;4.00;;;10.70;99.90;;;;;;7367666;19;20106;-62
2023/11/23 05:24:06;;;;;;;17.50;4.60;;;10.70;99.90;;;;;;7366769;19;20031;-63
2023/11/23 05:26:32;;;;;;;13.95;4.18;;;10.70;99.90;;;;;;7369074;19;20478;-63
2023/11/23 05:28:58;;;;;;;12.52;3.60;;;10.70;99.90;;;;;;7364520;19;20021;-62
2023/11/23 05:31:25;;;;;;;19.73;3.85;;;10.80;99.90;;;;;;7368925;19;20783;-63
2023/11/23 05:33:52;;;;;;;14.77;3.42;;;10.80;99.90;;;;;;7364642;19;20022;-63
2023/11/23 05:36:19;;;;;;;12.65;4.18;;;10.90;99.90;;;;;;7366511;19;20097;-63
2023/11/23 05:38:45;;;;;;;16.10;4.05;;;10.80;99.90;;;;;;7366523;19;20028;-63
2023/11/23 05:41:12;;;;;;;13.88;4.10;;;10.80;99.90;;;;;;7372906;19;20023;-63
2023/11/23 05:43:40;;;;;;;16.05;3.75;;;10.90;99.90;;;;;;7373720;19;20022;-63
2023/11/23 05:46:10;;;;;;;17.23;3.92;;;10.90;99.90;;;;;;7375065;19;20015;-64
2023/11/23 05:48:36;;;;;;;16.25;5.32;;;11.00;99.90;;;;;;7374220;19;20030;-65
2023/11/23 05:51:02;;;;;;;13.77;4.13;;;11.00;99.90;;;;;;7375639;19;20099;-64
2023/11/23 05:53:29;;;;;;;23.08;3.72;;;11.00;99.90;;;;;;7375053;19;20022;-65
2023/11/23 05:55:55;;;;;;;12.20;3.67;;;10.90;99.90;;;;;;7378213;19;20014;-64
2023/11/23 05:58:21;;;;;;;13.07;3.95;;;10.90;99.90;;;;;;7375709;19;20022;-64
2023/11/23 06:00:47;;;;;;;16.85;4.15;;;11.00;99.90;;;;;;7375806;19;20046;-64
2023/11/23 06:03:14;;;;;;;14.13;3.63;;;11.00;99.90;;;;;;7375667;19;20024;-64
2023/11/23 06:05:43;;;;;;;11.45;3.42;;;11.00;99.90;;;;;;7374213;19;20048;-64
2023/11/23 06:08:29;;;;;;;16.33;3.90;;;11.00;99.90;;;;;;7372913;19;20026;-64
2023/11/23 06:10:56;;;;;;;14.23;4.15;;;11.00;99.90;;;;;;7377728;19;20047;-61
2023/11/23 06:13:22;;;;;;;16.38;3.75;;;11.00;99.90;;;;;;7377468;19;20029;-64
2023/11/23 06:15:50;;;;;;;14.35;3.90;;;11.00;99.90;;;;;;7374848;19;20385;-64
2023/11/23 06:18:17;;;;;;;15.50;3.75;;;11.00;99.90;;;;;;7375313;19;20018;-65
2023/11/23 06:20:43;;;;;;;18.63;3.67;;;11.00;99.90;;;;;;7372817;19;20722;-63
2023/11/23 06:23:12;;;;;;;13.50;3.80;;;11.00;99.90;;;;;;7375818;19;20089;-63
2023/11/23 06:25:39;;;;;;;15.23;4.15;;;11.10;99.90;;;;;;7374913;19;20022;-64
2023/11/23 06:28:05;;;;;;;9.75;3.58;;;11.10;99.90;;;;;;7377682;19;20039;-63
2023/11/23 06:30:31;;;;;;;11.07;3.20;;;11.10;99.90;;;;;;7375616;19;20776;-63
2023/11/23 06:32:58;;;;;;;18.05;4.40;;;11.10;99.90;;;;;;7374420;19;20478;-63
2023/11/23 06:35:24;;;;;;;15.77;4.05;;;11.10;99.90;;;;;;7372817;19;20454;-63
2023/11/23 06:37:51;;;;;;;14.63;4.30;;;11.10;99.90;;;;;;7374794;19;20917;-63
2023/11/23 06:40:17;;;;;;;12.57;3.90;;;11.10;99.90;;;;;;7374713;19;20018;-64
2023/11/23 06:42:44;;;;;;;15.02;3.42;;;11.10;99.90;;;;;;7376444;19;20378;-63
2023/11/23 06:45:13;;;;;;;14.65;3.65;;;11.10;99.90;;;;;;7371406;19;20482;-64
2023/11/23 06:47:39;;;;;;;16.58;4.35;;;11.10;99.90;;;;;;7378913;19;20014;-62
2023/11/23 06:50:07;;;;;;;19.25;3.80;;;11.10;99.90;;;;;;7373619;19;20625;-60
2023/11/23 06:52:34;;;;;;;15.07;3.90;;;11.10;99.90;;;;;;7372865;19;20030;-64
2023/11/23 06:55:01;;;;;;;13.82;3.92;;;11.10;99.90;;;;;;7372446;19;20431;-61
2023/11/23 06:57:27;;;;;;;15.38;4.22;;;11.10;99.90;;;;;;7372757;19;20024;-63
2023/11/23 06:59:54;;;;;;;15.20;3.38;;;11.10;99.90;;;;;;7374497;19;20010;-62
2023/11/23 07:02:20;;;;;;;16.67;3.97;;;11.10;99.90;;;;;;7372020;19;20401;-62
2023/11/23 07:04:46;;;;;;;17.33;4.68;;;11.20;99.90;;;;;;7374657;19;20018;-61
2023/11/23 07:07:12;;;;;;;13.90;3.50;;;11.20;99.90;;;;;;7369353;19;20022;-62
2023/11/23 07:09:40;;;;;;;16.90;6.47;;;11.20;99.90;;;;;;7374159;19;20015;-60
2023/11/23 07:12:06;;;;;;;19.92;4.53;;;11.20;99.90;;;;;;7372835;19;20022;-59
2023/11/23 07:14:33;;;;;;;14.43;3.85;;;11.20;99.90;;;;;;7375745;19;20023;-60
2023/11/23 07:17:19;;;;;;;13.95;4.00;;;11.20;99.90;;;;;;7374594;19;20617;-59
2023/11/23 07:19:45;;;;;;;13.77;3.58;;;11.20;99.90;;;;;;7372170;19;20374;-62
2023/11/23 07:22:12;;;;;;;16.40;4.20;;;11.20;99.90;;;;;;7372003;19;20036;-59
2023/11/23 07:24:38;;;;;;;16.50;3.60;;;11.20;99.90;;;;;;7373729;19;20027;-59
2023/11/23 07:27:04;;;;;;;14.38;3.35;;;11.20;99.90;;;;;;7375366;19;20099;-60
2023/11/23 07:29:31;;;;;;;10.52;3.30;;;11.20;99.90;;;;;;7377314;19;20043;-59
2023/11/23 07:32:17;;;;;;;15.25;3.50;;;11.20;99.90;;;;;;7373797;19;20018;-60
2023/11/23 07:34:44;;;;;;;24.63;4.93;;;11.20;99.90;;;;;;7374871;19;20018;-60
2023/11/23 07:37:13;;;;;;;13.85;3.53;;;11.20;99.90;;;;;;7374243;19;20022;-59
2023/11/23 07:39:40;;;;;;;16.65;3.67;;;11.20;99.90;;;;;;7374908;19;20808;-59
2023/11/23 07:42:09;;;;;;;13.80;4.25;;;11.30;99.90;;;;;;7372490;19;20023;-59
2023/11/23 07:44:36;;;;;;;14.18;3.72;;;11.20;99.90;;;;;;7376350;19;20046;-64
2023/11/23 07:47:02;;;;;;;14.80;3.40;;;11.20;99.90;;;;;;7375728;19;20014;-59
2023/11/23 07:49:29;;;;;;;16.77;2.85;;;11.20;99.90;;;;;;7372972;19;20015;-60
2023/11/23 07:51:55;;;;;;;13.70;3.17;;;11.20;99.90;;;;;;7372015;19;20945;-59
2023/11/23 07:54:21;;;;;;;13.50;3.75;;;11.20;99.90;;;;;;7375586;19;20019;-59
2023/11/23 07:56:48;;;;;;;18.75;4.20;;;11.20;99.90;;;;;;7372906;19;20019;-59
2023/11/23 07:59:14;;;;;;;11.90;3.30;;;11.20;99.90;;;;;;7374801;19;20482;-60
2023/11/23 08:01:40;;;;;;;14.23;3.45;;;11.20;99.90;;;;;;7372863;19;20506;-62
2023/11/23 08:04:06;;;;;;;17.48;4.82;;;11.20;99.90;;;;;;7372116;19;20018;-62
2023/11/23 08:06:32;;;;;;;15.18;4.07;;;11.20;99.90;;;;;;7370303;19;20029;-62
2023/11/23 08:08:59;;;;;;;18.48;4.18;;;11.20;99.90;;;;;;7374776;19;20593;-61
2023/11/23 08:11:25;;;;;;;18.00;3.72;;;11.30;99.90;;;;;;7376088;19;20387;-63
2023/11/23 08:13:51;;;;;;;12.10;3.05;;;11.30;99.90;;;;;;7371382;19;20081;-62
2023/11/23 08:16:18;;;;;;;14.02;4.07;;;11.30;99.90;;;;;;7371606;19;20077;-62
2023/11/23 08:18:47;;;;;;;16.95;4.28;;;11.30;99.90;;;;;;7371196;19;20014;-63
2023/11/23 08:21:14;;;;;;;12.95;3.40;;;11.30;99.90;;;;;;7372782;19;20022;-62
2023/11/23 08:23:41;;;;;;;11.32;2.88;;;11.30;99.90;;;;;;7373519;19;20019;-61
2023/11/23 08:26:09;;;;;;;10.48;3.72;;;11.40;99.90;;;;;;7369523;19;20025;-62
2023/11/23 08:28:35;;;;;;;15.45;3.58;;;11.60;99.90;;;;;;7375080;19;20018;-63
2023/11/23 08:31:01;;;;;;;11.63;3.75;;;11.80;99.90;;;;;;7370492;19;20331;-63
2023/11/23 08:33:47;;;;;;;12.35;3.83;;;12.00;99.90;;;;;;7370732;19;20015;-62
2023/11/23 08:36:15;;;;;;;11.45;3.50;;;12.00;99.90;;;;;;7374047;19;20014;-61
2023/11/23 08:38:44;;;;;;;10.75;2.90;;;12.10;99.90;;;;;;7371309;19;20494;-61
2023/11/23 08:41:11;;;;;;;12.98;2.97;;;12.00;99.90;;;;;;7372405;19;20404;-60
2023/11/23 08:43:38;;;;;;;11.05;3.20;;;12.00;99.90;;;;;;7370021;19;20033;-60
2023/11/23 08:46:07;;;;;;;14.35;3.20;;;12.00;99.90;;;;;;7370230;19;20033;-61
2023/11/23 08:48:33;;;;;;;10.02;2.63;;;12.00;99.90;;;;;;7369381;19;20026;-61
2023/11/23 08:50:59;;;;;;;10.68;3.17;;;12.00;99.90;;;;;;7372371;19;20020;-61
2023/11/23 08:53:25;;;;;;;18.42;3.58;;;12.10;99.90;;;;;;7369430;19;20029;-63
2023/11/23 08:55:55;;;;;;;14.38;3.22;;;12.20;99.90;;;;;;7365362;19;20022;-64
2023/11/23 08:58:21;;;;;;;8.95;2.70;;;12.20;99.90;;;;;;7370037;19;20022;-64
2023/11/23 09:00:48;;;;;;;7.72;2.35;;;12.20;99.90;;;;;;7368675;19;20570;-63
2023/11/23 09:03:14;;;;;;;12.15;3.00;;;12.20;99.90;;;;;;7369628;19;20014;-65
2023/11/23 09:05:40;;;;;;;15.13;3.65;;;12.40;99.90;;;;;;7371351;19;20142;-64
2023/11/23 09:08:07;;;;;;;13.05;3.20;;;12.50;99.90;;;;;;7370288;19;20026;-63
2023/11/23 09:10:34;;;;;;;9.75;2.80;;;12.70;99.90;;;;;;7373735;19;20036;-64
2023/11/23 09:13:02;;;;;;;10.93;2.80;;;12.70;99.90;;;;;;7367614;19;21161;-62
2023/11/23 09:15:28;;;;;;;11.65;3.08;;;12.70;99.90;;;;;;7367192;19;20015;-63
2023/11/23 09:17:58;;;;;;;10.45;2.97;;;12.60;99.90;;;;;;7376827;19;20849;-63
2023/11/23 09:20:24;;;;;;;11.27;3.22;;;12.60;99.90;;;;;;7374903;19;20019;-63
2023/11/23 09:22:51;;;;;;;11.13;2.75;;;12.50;99.90;;;;;;7376310;19;20581;-62
2023/11/23 09:25:18;;;;;;;9.90;2.90;;;12.40;99.90;;;;;;7376411;19;20030;-63
2023/11/23 09:27:44;;;;;;;9.32;2.30;;;12.40;99.90;;;;;;7373754;19;20973;-63
2023/11/23 09:30:12;;;;;;;10.10;3.00;;;12.40;99.90;;;;;;7373611;19;20629;-64
2023/11/23 09:32:39;;;;;;;11.15;3.28;;;12.40;99.90;;;;;;7370211;19;20014;-64
2023/11/23 09:35:10;;;;;;;9.15;2.60;;;12.40;99.90;;;;;;7373172;19;20412;-61
2023/11/23 09:37:59;;;;;;;11.15;2.58;;;12.40;99.90;;;;;;7373286;19;20027;-61
2023/11/23 09:40:26;;;;;;;11.85;3.28;;;12.50;99.90;;;;;;7373794;19;21659;-61
2023/11/23 09:42:52;;;;;;;11.90;2.92;;;12.50;99.90;;;;;;7371659;19;20023;-61
2023/11/23 09:45:20;;;;;;;11.70;2.60;;;12.60;99.90;;;;;;7372455;19;20022;-62
2023/11/23 09:47:49;;;;;;;11.10;2.17;;;12.70;99.90;;;;;;7378240;19;20106;-62
2023/11/23 09:50:16;;;;;;;10.80;2.83;;;12.80;99.90;;;;;;7378394;19;20427;-62
2023/11/23 09:52:42;;;;;;;10.55;2.38;;;12.80;99.90;;;;;;7378423;19;20019;-64
2023/11/23 09:55:10;;;;;;;12.80;2.88;;;12.80;99.90;;;;;;7378190;19;20051;-61
2023/11/23 09:57:38;;;;;;;10.60;2.95;;;12.80;99.90;;;;;;7378146;19;20627;-64
2023/11/23 10:00:09;;;;;;;9.57;2.33;;;12.90;99.90;;;;;;7376713;19;20392;-63
2023/11/23 10:02:36;;;;;;;9.82;2.60;;;12.90;99.90;;;;;;7373893;19;20374;-64
2023/11/23 10:05:07;;;;;;;13.10;3.15;;;13.10;99.90;;;;;;7373753;19;20018;-61
2023/11/23 10:07:35;;;;;;;14.48;3.55;;;13.10;99.90;;;;;;7374463;19;20019;-61
2023/11/23 10:10:05;;;;;;;9.35;2.50;;;13.20;99.90;;;;;;7374466;19;20018;-61
2023/11/23 10:12:33;;;;;;;9.77;3.10;;;13.30;99.90;;;;;;7375583;19;20054;-64
2023/11/23 10:14:59;;;;;;;11.50;3.03;;;13.40;99.90;;;;;;7375270;19;20883;-64
2023/11/23 10:17:25;;;;;;;9.32;3.33;;;13.40;99.90;;;;;;7377772;19;20061;-64
2023/11/23 10:20:16;;;;;;;14.57;3.00;;;13.50;99.90;;;;;;7372989;19;20026;-61
2023/11/23 10:22:47;;;;;;;8.77;2.60;;;13.60;99.90;;;;;;7375104;19;20667;-61
2023/11/23 10:25:31;;;;;;;9.90;2.40;;;13.70;99.90;;;;;;7378193;19;20026;-64
2023/11/23 10:28:20;;;;;;;12.23;2.75;;;13.70;99.90;;;;;;7372386;19;20018;-62
2023/11/23 10:30:47;;;;;;;9.30;2.10;;;13.70;99.90;;;;;;7377375;19;20030;-61
2023/11/23 10:33:14;;;;;;;10.77;2.58;;;13.70;99.90;;;;;;7372904;19;20024;-61
2023/11/23 10:35:44;;;;;;;9.57;2.03;;;13.60;99.90;;;;;;7374436;19;20070;-61
2023/11/23 10:38:13;;;;;;;13.60;2.38;;;13.40;99.90;;;;;;7373530;19;20113;-61
2023/11/23 10:40:39;;;;;;;7.60;2.10;;;13.40;99.90;;;;;;7375195;19;20682;-61
2023/11/23 10:43:09;;;;;;;8.30;2.20;;;13.30;99.90;;;;;;7379513;19;20015;-61
2023/11/23 10:45:37;;;;;;;10.02;2.30;;;13.20;99.90;;;;;;7374500;19;20661;-61
2023/11/23 10:48:04;;;;;;;9.82;2.58;;;13.20;99.90;;;;;;7374336;19;20082;-62
2023/11/23 10:50:35;;;;;;;10.48;2.42;;;13.30;99.90;;;;;;7374941;19;20559;-61
2023/11/23 10:53:02;;;;;;;8.65;2.30;;;13.20;99.90;;;;;;7376396;19;20749;-63
2023/11/23 10:55:31;;;;;;;12.18;2.90;;;13.20;99.90;;;;;;7376983;19;20023;-61
2023/11/23 10:58:19;;;;;;;10.75;2.05;;;13.20;99.90;;;;;;7374390;19;20025;-61
2023/11/23 11:00:47;;;;;;;8.50;2.42;;;13.20;99.90;;;;;;7376121;19;20026;-63
2023/11/23 11:03:14;;;;;;;10.25;2.03;;;13.20;99.90;;;;;;7372139;19;20889;-64
2023/11/23 11:05:46;;;;;;;12.40;2.92;;;13.20;99.90;;;;;;7371300;19;20029;-64
2023/11/23 11:08:20;;;;;;;7.60;2.72;;;13.20;99.90;;;;;;7369736;19;20018;-61
2023/11/23 11:10:50;;;;;;;7.50;1.80;;;13.30;99.90;;;;;;7371716;19;20434;-61
2023/11/23 11:13:22;;;;;;;7.75;2.55;;;13.30;99.90;;;;;;7373762;19;20023;-64
2023/11/23 11:15:52;;;;;;;;;;;13.30;99.90;;;;;;7372665;19;20014;-64
2023/11/23 11:18:26;;;;;;;7.78;2.28;;;13.30;99.90;;;;;;7373567;19;19926;-66
2023/11/23 11:21:06;;;;;;;10.57;2.50;;;13.30;99.90;;;;;;7371762;19;20477;-64
2023/11/23 11:23:36;;;;;;;11.00;3.15;;;13.30;99.90;;;;;;7372796;19;20096;-63
2023/11/23 11:26:27;;;;;;;7.65;2.38;;;13.40;99.90;;;;;;7370220;19;20379;-63
2023/11/23 11:29:05;;;;;;;8.95;2.53;;;13.40;99.90;;;;;;7369076;19;20518;-64
2023/11/23 11:31:38;;;;;;;10.90;2.28;;;13.30;99.90;;;;;;7371555;19;20874;-63
2023/11/23 11:34:26;;;;;;;12.02;2.42;;;13.30;99.90;;;;;;7372247;19;20044;-64
2023/11/23 11:37:01;;;;;;;10.88;2.63;;;13.20;99.90;;;;;;7369422;19;20010;-61
2023/11/23 11:39:30;;;;;;;11.77;2.35;;;13.30;99.90;;;;;;7369588;19;20018;-62
2023/11/23 11:41:59;;;;;;;12.50;2.30;;;13.30;99.90;;;;;;7370388;19;20434;-60
2023/11/23 11:44:35;;;;;;;9.75;2.22;;;13.30;99.90;;;;;;7373085;19;20051;-61
2023/11/23 11:47:03;;;;;;;9.73;2.17;;;13.30;99.90;;;;;;7370365;19;20014;-61
2023/11/23 11:49:30;;;;;;;7.75;2.88;;;13.30;99.90;;;;;;7372845;19;20640;-60
2023/11/23 11:51:57;;;;;;;15.05;2.80;;;13.30;99.90;;;;;;7371582;19;20189;-60
2023/11/23 11:54:28;;;;;;;10.43;2.22;;;13.30;99.90;;;;;;7374232;19;20485;-61
2023/11/23 11:56:54;;;;;;;9.80;2.35;;;13.30;99.90;;;;;;7371820;19;20031;-59
2023/11/23 11:59:21;;;;;;;6.70;2.20;;;13.30;99.90;;;;;;7372856;19;20390;-60
2023/11/23 12:01:49;;;;;;;11.70;2.53;;;13.20;99.90;;;;;;7366990;19;20430;-61
2023/11/23 12:04:20;;;;;;;7.07;2.03;;;13.20;99.90;;;;;;7373004;19;20011;-62
2023/11/23 12:06:50;;;;;;;13.75;3.90;;;13.20;99.90;;;;;;7373302;19;20022;-61
2023/11/23 12:09:19;;;;;;;14.82;3.17;;;13.10;99.90;;;;;;7373410;19;20367;-61
2023/11/23 12:11:46;;;;;;;14.65;3.08;;;13.10;99.90;;;;;;7370063;19;20021;-60
2023/11/23 12:14:12;;;;;;;13.55;2.05;;;13.10;99.90;;;;;;7370245;19;20018;-61
2023/11/23 12:16:39;;;;;;;11.00;3.08;;;13.10;99.90;;;;;;7370126;19;20022;-61
2023/11/23 12:19:24;;;;;;;11.63;2.85;;;13.10;99.90;;;;;;7368338;19;20037;-61
2023/11/23 12:21:56;;;;;;;13.02;3.20;;;13.20;99.90;;;;;;7367821;19;20466;-63
2023/11/23 12:24:25;;;;;;;;;;;13.20;99.90;;;;;;7369523;19;20018;-64
2023/11/23 12:26:57;;;;;;;11.43;2.75;;;13.30;99.90;;;;;;7370816;19;19922;-63
2023/11/23 12:29:25;;;;;;;12.15;2.83;;;13.30;99.90;;;;;;7369878;19;20026;-64
2023/11/23 12:31:52;;;;;;;10.32;2.42;;;13.30;99.90;;;;;;7370699;19;20029;-64
2023/11/23 12:34:23;;;;;;;11.45;2.92;;;13.40;99.90;;;;;;7369997;19;20022;-64
2023/11/23 12:37:09;;;;;;;8.73;2.50;;;13.40;99.90;;;;;;7368739;19;20014;-64
2023/11/23 12:39:39;;;;;;;10.90;2.40;;;13.30;99.90;;;;;;7372985;19;20022;-64
2023/11/23 12:42:05;;;;;;;8.52;2.10;;;13.30;99.90;;;;;;7367570;19;20018;-63
2023/11/23 12:44:35;;;;;;;14.20;2.88;;;13.20;99.90;;;;;;7370247;19;20022;-64